CheckWX is a tool to help pilots better visualize weather data.  It is not intended as a substitute for an official pre-flight weather briefing.

23:21:45 UTC

PAKT METAR
Ketchikan International Airport
Ketchikan, Alaska, USA
Current

29 mins ago

PAKT 262253Z 30005KT 10SM FEW065 BKN090 13/04 A3029 RMK SLP259 T01280044 VIA AUTODIAL
Observed
May-26 @ 22:53 UTC
Wind
  • 300° at 5 KTS
Visibility
Flight Rules
VFR
Cloud Levels
  • Few at 6,500' AGL
  • Broken at 9,000' AGL
Temperature
13°C / 55°F
Dewpoint
C / 39°F
Humidity
55%
Altimeter
30.29" Hg
Pressure
1025.72 hPa
Previous

1 hour ago

PAKT 262153Z 34009KT 10SM OVC060 13/05 A3028 RMK SLP255 HARBOR WIND 30011KT T01330050 VIA AUTODIAL
Observed
May-26 @ 21:53 UTC
Wind
  • 340° at 9 KTS
Visibility
Flight Rules
VFR
Cloud Levels
  • Overcast at 6,000' AGL
Temperature
13°C / 55°F
Dewpoint
C / 41°F
Humidity
59%
Altimeter
30.28" Hg
Pressure
1025.42 hPa
Previous

2 hours ago

PAKT 262053Z 33009KT 10SM BKN050 11/06 A3028 RMK SLP255 HARBOR WIND 28013KT T01110056 51010 VIA AUTODIAL
Observed
May-26 @ 20:53 UTC
Wind
  • 330° at 9 KTS
Visibility
Flight Rules
VFR
Cloud Levels
  • Broken at 5,000' AGL
Temperature
11°C / 52°F
Dewpoint
C / 43°F
Humidity
72%
Altimeter
30.28" Hg
Pressure
1025.42 hPa